createdAt,value
2023-04-23T00:02:15.625Z,61.40
2023-04-23T00:04:42.509Z,61.40
2023-04-23T00:07:09.190Z,61.40
2023-04-23T00:09:35.664Z,61.40
2023-04-23T00:12:02.151Z,61.30
2023-04-23T00:14:28.647Z,61.30
2023-04-23T00:16:55.123Z,61.30
2023-04-23T00:19:21.596Z,61.20
2023-04-23T00:21:48.075Z,61.20
2023-04-23T00:24:14.532Z,61.30
2023-04-23T00:26:41.028Z,61.20
2023-04-23T00:29:07.506Z,61.20
2023-04-23T00:31:34.049Z,61.10
2023-04-23T00:34:00.573Z,61.10
2023-04-23T00:36:27.056Z,61.10
2023-04-23T00:38:53.542Z,61.10
2023-04-23T00:41:20.035Z,61.10
2023-04-23T00:43:51.005Z,61.10
2023-04-23T00:46:17.651Z,61.10
2023-04-23T00:48:44.259Z,61.10
2023-04-23T00:51:10.728Z,61.10
2023-04-23T00:53:45.223Z,61.00
2023-04-23T00:56:11.717Z,61.00
2023-04-23T00:58:38.196Z,61.00
2023-04-23T01:01:04.818Z,61.00
2023-04-23T01:03:31.422Z,61.00
2023-04-23T01:05:58.010Z,61.00
2023-04-23T01:08:24.520Z,61.00
2023-04-23T01:10:51.025Z,60.90
2023-04-23T01:13:17.701Z,61.00
2023-04-23T01:15:44.243Z,60.90
2023-04-23T01:18:10.709Z,60.90
2023-04-23T01:20:37.204Z,60.90
2023-04-23T01:23:03.737Z,60.70
2023-04-23T01:25:30.252Z,60.80
2023-04-23T01:27:56.733Z,60.80
2023-04-23T01:30:23.224Z,60.80
2023-04-23T01:32:49.727Z,60.70
2023-04-23T01:35:16.199Z,60.80
2023-04-23T01:37:42.730Z,60.70
2023-04-23T01:40:09.198Z,60.70
2023-04-23T01:42:35.679Z,60.60
2023-04-23T01:45:02.138Z,60.70
2023-04-23T01:47:33.062Z,60.60
2023-04-23T01:49:59.542Z,60.50
2023-04-23T01:52:26.011Z,60.60
2023-04-23T01:54:52.485Z,60.60
2023-04-23T01:57:18.964Z,60.60
2023-04-23T01:59:45.433Z,60.60
2023-04-23T02:02:11.965Z,60.60
2023-04-23T02:04:38.676Z,60.50
2023-04-23T02:07:05.327Z,60.50
2023-04-23T02:09:31.805Z,60.50
2023-04-23T02:11:58.295Z,60.60
2023-04-23T02:14:24.775Z,60.50
2023-04-23T02:16:51.270Z,60.50
2023-04-23T02:19:17.919Z,60.50
2023-04-23T02:21:44.409Z,60.40
2023-04-23T02:24:10.875Z,60.40
2023-04-23T02:26:37.365Z,60.40
2023-04-23T02:29:09.087Z,60.30
2023-04-23T02:31:35.645Z,60.30
2023-04-23T02:34:02.137Z,60.30
2023-04-23T02:36:28.630Z,60.30
2023-04-23T02:38:55.096Z,60.30
2023-04-23T02:41:21.625Z,60.30
2023-04-23T02:43:48.113Z,60.30
2023-04-23T02:46:14.675Z,60.40
2023-04-23T02:48:41.210Z,60.30
2023-04-23T02:51:07.704Z,60.20
2023-04-23T02:53:34.156Z,60.30
2023-04-23T02:56:00.632Z,60.30
2023-04-23T02:58:27.112Z,60.20
2023-04-23T03:00:53.596Z,60.20
2023-04-23T03:03:20.260Z,60.20
2023-04-23T03:05:46.842Z,60.30
2023-04-23T03:08:13.328Z,60.20
2023-04-23T03:10:45.105Z,60.20
2023-04-23T03:13:11.582Z,60.20
2023-04-23T03:15:38.052Z,60.20
2023-04-23T03:18:04.639Z,60.20
2023-04-23T03:20:31.133Z,60.20
2023-04-23T03:22:57.600Z,60.20
2023-04-23T03:25:24.074Z,60.20
2023-04-23T03:27:50.555Z,60.30
2023-04-23T03:30:17.017Z,60.30
2023-04-23T03:32:43.611Z,60.40
2023-04-23T03:35:10.129Z,60.30
2023-04-23T03:37:36.622Z,60.30
2023-04-23T03:40:03.115Z,60.30
2023-04-23T03:42:29.603Z,60.10
2023-04-23T03:44:56.105Z,60.10
2023-04-23T03:47:22.684Z,60.20
2023-04-23T03:49:49.180Z,60.20
2023-04-23T03:52:15.661Z,60.30
2023-04-23T03:54:42.282Z,60.20
2023-04-23T03:57:08.916Z,60.20
2023-04-23T03:59:35.397Z,60.10
2023-04-23T04:02:01.899Z,60.10
2023-04-23T04:04:28.646Z,60.20
2023-04-23T04:06:55.364Z,60.20
2023-04-23T04:09:21.843Z,60.20
2023-04-23T04:11:48.334Z,60.30
2023-04-23T04:14:14.816Z,60.10
2023-04-23T04:16:41.295Z,59.90
2023-04-23T04:19:07.762Z,59.80
2023-04-23T04:21:34.216Z,59.40
2023-04-23T04:24:00.682Z,59.30
2023-04-23T04:26:27.159Z,59.20
2023-04-23T04:28:53.640Z,58.80
2023-04-23T04:31:20.113Z,58.70
2023-04-23T04:33:46.600Z,58.50
2023-04-23T04:36:13.065Z,58.40
2023-04-23T04:38:45.162Z,58.30
2023-04-23T04:41:11.633Z,58.10
2023-04-23T04:43:38.189Z,57.90
2023-04-23T04:46:06.565Z,57.90
2023-04-23T04:48:33.858Z,57.70
2023-04-23T04:51:00.332Z,57.50
2023-04-23T04:53:26.799Z,57.40
2023-04-23T04:55:53.273Z,57.20
2023-04-23T04:58:19.737Z,57.10
2023-04-23T05:00:51.404Z,57.10
2023-04-23T05:03:17.988Z,56.90
2023-04-23T05:05:44.619Z,56.80
2023-04-23T05:08:11.122Z,56.70
2023-04-23T05:10:37.584Z,56.60
2023-04-23T05:13:04.092Z,56.70
2023-04-23T05:15:30.569Z,56.50
2023-04-23T05:17:57.093Z,56.40
2023-04-23T05:20:23.622Z,56.30
2023-04-23T05:22:50.105Z,56.20
2023-04-23T05:25:16.586Z,56.30
2023-04-23T05:27:45.173Z,56.20
2023-04-23T05:30:11.651Z,56.20
2023-04-23T05:32:38.220Z,56.10
2023-04-23T05:35:04.725Z,56.10
2023-04-23T05:37:31.186Z,56.00
2023-04-23T05:39:57.661Z,56.00
2023-04-23T05:42:24.129Z,55.90
2023-04-23T05:44:50.610Z,55.90
2023-04-23T05:47:17.091Z,55.80
2023-04-23T05:49:43.552Z,55.70
2023-04-23T05:52:10.025Z,55.70
2023-04-23T05:54:36.501Z,55.70
2023-04-23T05:57:02.971Z,55.70
2023-04-23T05:59:29.436Z,55.60
2023-04-23T06:01:55.919Z,55.50
2023-04-23T06:04:22.599Z,55.50
2023-04-23T06:06:49.276Z,55.60
2023-04-23T06:09:15.744Z,55.80
2023-04-23T06:11:42.229Z,55.50
2023-04-23T06:14:09.225Z,55.60
2023-04-23T06:16:35.679Z,55.60
2023-04-23T06:19:02.146Z,55.60
2023-04-23T06:21:28.644Z,55.70
2023-04-23T06:23:55.144Z,55.50
2023-04-23T06:26:21.632Z,55.50
2023-04-23T06:28:48.148Z,55.60
2023-04-23T06:31:14.701Z,55.50
2023-04-23T06:33:41.220Z,55.60
2023-04-23T06:36:07.695Z,55.50
2023-04-23T06:38:34.203Z,55.40
2023-04-23T06:41:00.652Z,55.40
2023-04-23T06:43:27.172Z,55.30
2023-04-23T06:45:53.633Z,55.40
2023-04-23T06:48:20.206Z,55.40
2023-04-23T06:50:46.677Z,55.40
2023-04-23T06:53:13.148Z,55.40
2023-04-23T06:55:39.615Z,55.40
2023-04-23T06:58:06.108Z,55.40
2023-04-23T07:00:32.603Z,55.40
2023-04-23T07:02:59.246Z,55.40
2023-04-23T07:05:25.796Z,55.50
2023-04-23T07:07:52.279Z,55.40
2023-04-23T07:10:18.758Z,55.40
2023-04-23T07:12:45.238Z,55.30
2023-04-23T07:15:11.752Z,55.30
2023-04-23T07:17:38.273Z,55.40
2023-04-23T07:20:04.846Z,55.30
2023-04-23T07:22:31.314Z,55.30
2023-04-23T07:24:57.798Z,55.40
2023-04-23T07:27:24.255Z,55.40
2023-04-23T07:29:50.744Z,55.20
2023-04-23T07:32:17.395Z,55.30
2023-04-23T07:34:44.345Z,55.40
2023-04-23T07:37:10.924Z,55.40
2023-04-23T07:39:37.454Z,55.20
2023-04-23T07:42:03.915Z,55.30
2023-04-23T07:44:30.377Z,55.30
2023-04-23T07:46:57.280Z,55.30
2023-04-23T07:49:23.758Z,55.30
2023-04-23T07:51:50.233Z,55.40
2023-04-23T07:54:16.724Z,55.50
2023-04-23T07:56:43.561Z,55.40
2023-04-23T07:59:10.075Z,55.40
2023-04-23T08:01:36.560Z,55.50
2023-04-23T08:04:03.226Z,55.60
2023-04-23T08:06:33.341Z,55.40
2023-04-23T08:08:59.811Z,55.40
2023-04-23T08:11:26.276Z,55.50
2023-04-23T08:13:52.743Z,55.60
2023-04-23T08:16:19.271Z,55.90
2023-04-23T08:18:54.523Z,56.00
2023-04-23T08:21:31.045Z,56.20
2023-04-23T08:23:57.577Z,56.40
2023-04-23T08:26:24.064Z,56.70
2023-04-23T08:28:50.542Z,56.80
2023-04-23T08:31:25.646Z,57.00
2023-04-23T08:33:53.212Z,57.20
2023-04-23T08:36:19.734Z,57.30
2023-04-23T08:38:46.194Z,57.40
2023-04-23T08:41:12.667Z,57.40
2023-04-23T08:43:39.138Z,57.50
2023-04-23T08:46:05.597Z,57.60
2023-04-23T08:48:33.323Z,57.60
2023-04-23T08:50:59.793Z,57.70
2023-04-23T08:53:26.264Z,57.80
2023-04-23T08:55:52.741Z,57.80
2023-04-23T08:58:19.231Z,57.80
2023-04-23T09:00:45.740Z,57.90
2023-04-23T09:03:12.499Z,57.90
2023-04-23T09:05:39.204Z,58.00
2023-04-23T09:08:15.518Z,58.00
2023-04-23T09:10:42.019Z,58.10
2023-04-23T09:13:08.484Z,58.10
2023-04-23T09:15:34.995Z,58.10
2023-04-23T09:18:01.506Z,58.20
2023-04-23T09:20:28.029Z,58.10
2023-04-23T09:22:54.511Z,58.10
2023-04-23T09:25:21.021Z,58.20
2023-04-23T09:27:47.500Z,58.20
2023-04-23T09:30:13.981Z,58.20
2023-04-23T09:32:40.498Z,58.20
2023-04-23T09:35:07.022Z,58.30
2023-04-23T09:37:33.498Z,58.30
2023-04-23T09:39:59.978Z,58.20
2023-04-23T09:42:26.440Z,58.30
2023-04-23T09:44:57.617Z,58.40
2023-04-23T09:47:25.184Z,58.30
2023-04-23T09:49:51.772Z,58.30
2023-04-23T09:52:18.237Z,58.40
2023-04-23T09:54:45.379Z,58.40
2023-04-23T09:57:11.834Z,58.40
2023-04-23T09:59:47.825Z,58.40
2023-04-23T10:02:16.618Z,58.50
2023-04-23T10:04:43.297Z,58.50
2023-04-23T10:09:44.920Z,58.50
2023-04-23T10:12:27.700Z,58.40
2023-04-23T10:14:57.870Z,58.60
2023-04-23T10:17:24.399Z,58.60
2023-04-23T10:19:50.908Z,58.60
2023-04-23T10:22:19.782Z,58.60
2023-04-23T10:24:48.709Z,58.50
2023-04-23T10:27:26.881Z,58.50
2023-04-23T10:30:03.597Z,58.60
2023-04-23T10:32:31.318Z,58.60
2023-04-23T10:34:57.814Z,58.60
2023-04-23T10:37:27.451Z,58.60
2023-04-23T10:39:53.924Z,58.70
2023-04-23T10:42:20.400Z,58.70
2023-04-23T10:44:57.993Z,58.60
2023-04-23T10:47:29.345Z,58.60
2023-04-23T10:49:55.858Z,58.60
2023-04-23T10:52:23.774Z,58.60
2023-04-23T10:54:52.350Z,58.60
2023-04-23T10:57:18.845Z,58.60
2023-04-23T10:59:45.297Z,58.60
2023-04-23T11:02:11.852Z,58.60
2023-04-23T11:04:38.419Z,58.60
2023-04-23T11:07:04.947Z,58.60
2023-04-23T11:09:31.414Z,58.60
2023-04-23T11:11:57.895Z,58.60
2023-04-23T11:14:24.374Z,58.60
2023-04-23T11:16:51.600Z,58.60
2023-04-23T11:19:20.589Z,58.50
2023-04-23T11:21:47.330Z,58.60
2023-04-23T11:24:13.807Z,58.60
2023-04-23T11:26:45.708Z,58.60
2023-04-23T11:29:12.181Z,58.60
2023-04-23T11:31:42.729Z,58.70
2023-04-23T11:34:17.234Z,58.60
2023-04-23T11:36:43.714Z,58.60
2023-04-23T11:39:10.186Z,58.60
2023-04-23T11:41:36.661Z,58.70
2023-04-23T11:44:03.135Z,58.60
2023-04-23T11:46:29.647Z,58.60
2023-04-23T11:48:56.153Z,58.60
2023-04-23T11:51:22.646Z,58.50
2023-04-23T11:53:49.135Z,58.60
2023-04-23T11:56:15.603Z,58.60
2023-04-23T11:58:42.066Z,58.50
2023-04-23T12:01:08.592Z,58.50
2023-04-23T12:03:35.110Z,58.60
2023-04-23T12:06:01.726Z,58.50
2023-04-23T12:08:28.188Z,58.50
2023-04-23T12:10:57.581Z,58.50
2023-04-23T12:13:27.526Z,58.50
2023-04-23T12:15:54.002Z,58.50
2023-04-23T12:18:20.470Z,58.50
2023-04-23T12:20:46.961Z,58.50
2023-04-23T12:23:13.446Z,58.50
2023-04-23T12:25:39.912Z,58.50
2023-04-23T12:28:06.396Z,58.40
2023-04-23T12:30:32.878Z,58.40
2023-04-23T12:32:59.461Z,58.40
2023-04-23T12:35:25.959Z,58.40
2023-04-23T12:37:52.448Z,58.30
2023-04-23T12:40:18.914Z,58.20
2023-04-23T12:42:45.373Z,58.20
2023-04-23T12:45:11.848Z,58.20
2023-04-23T12:47:38.367Z,58.20
2023-04-23T12:50:04.896Z,58.10
2023-04-23T12:52:31.362Z,58.20
2023-04-23T12:54:57.909Z,58.20
2023-04-23T12:57:27.747Z,58.10
2023-04-23T12:59:54.256Z,58.10
2023-04-23T13:02:20.806Z,58.10
2023-04-23T13:04:47.317Z,58.10
2023-04-23T13:07:13.785Z,58.10
2023-04-23T13:09:40.378Z,58.10
2023-04-23T13:12:06.966Z,58.00
2023-04-23T13:14:33.455Z,58.00
2023-04-23T13:16:59.940Z,58.00
2023-04-23T13:19:26.501Z,58.00
2023-04-23T13:21:53.017Z,58.00
2023-04-23T13:24:19.559Z,57.90
2023-04-23T13:26:46.048Z,57.90
2023-04-23T13:29:12.555Z,57.90
2023-04-23T13:31:39.081Z,57.90
2023-04-23T13:34:05.615Z,57.80
2023-04-23T13:36:32.073Z,57.80
2023-04-23T13:38:58.597Z,57.80
2023-04-23T13:41:25.072Z,57.70
2023-04-23T13:43:51.553Z,57.70
2023-04-23T13:46:18.017Z,57.60
2023-04-23T13:48:44.491Z,57.60
2023-04-23T13:51:26.014Z,57.60
2023-04-23T13:53:57.409Z,57.60
2023-04-23T13:56:23.913Z,57.60
2023-04-23T13:58:50.376Z,57.60
2023-04-23T14:01:16.876Z,57.60
2023-04-23T14:03:43.350Z,57.60
2023-04-23T14:06:09.845Z,57.60
2023-04-23T14:08:39.778Z,57.50
2023-04-23T14:11:06.262Z,57.50
2023-04-23T14:13:32.753Z,57.50
2023-04-23T14:16:01.274Z,57.50
2023-04-23T14:18:29.440Z,57.40
2023-04-23T14:20:55.944Z,57.40
2023-04-23T14:23:22.423Z,57.30
2023-04-23T14:25:48.916Z,57.30
2023-04-23T14:28:15.385Z,57.30
2023-04-23T14:30:41.877Z,57.20
2023-04-23T14:33:08.453Z,57.30
2023-04-23T14:35:43.313Z,57.20
2023-04-23T14:38:10.122Z,57.10
2023-04-23T14:40:39.670Z,57.10
2023-04-23T14:43:14.992Z,57.10
2023-04-23T14:45:42.237Z,57.10
2023-04-23T14:48:08.707Z,57.00
2023-04-23T14:50:35.194Z,57.00
2023-04-23T14:53:01.667Z,56.90
2023-04-23T14:55:28.162Z,57.00
2023-04-23T14:57:54.636Z,56.90
2023-04-23T15:00:21.119Z,57.00
2023-04-23T15:02:47.742Z,56.90
2023-04-23T15:05:14.301Z,56.90
2023-04-23T15:07:40.772Z,56.90
2023-04-23T15:10:07.272Z,56.80
2023-04-23T15:12:33.746Z,56.80
2023-04-23T15:15:00.255Z,56.80
2023-04-23T15:17:26.772Z,56.80
2023-04-23T15:19:53.278Z,56.80
2023-04-23T15:22:19.744Z,56.80
2023-04-23T15:24:46.220Z,56.70
2023-04-23T15:27:12.689Z,56.70
2023-04-23T15:29:39.803Z,56.70
2023-04-23T15:34:57.198Z,56.70
2023-04-23T15:37:27.713Z,56.70
2023-04-23T15:39:54.247Z,56.60
2023-04-23T15:42:21.713Z,56.60
2023-04-23T15:44:48.410Z,56.70
2023-04-23T15:47:14.938Z,56.40
2023-04-23T15:49:41.627Z,56.60
2023-04-23T15:52:08.376Z,56.60
2023-04-23T15:54:34.837Z,56.40
2023-04-23T15:57:01.304Z,56.50
2023-04-23T15:59:27.768Z,56.50
2023-04-23T16:01:57.730Z,56.50
2023-04-23T16:04:24.355Z,56.30
2023-04-23T16:06:50.909Z,56.30
2023-04-23T16:09:17.389Z,56.30
2023-04-23T16:11:43.869Z,56.30
2023-04-23T16:14:10.334Z,56.40
2023-04-23T16:16:36.860Z,56.30
2023-04-23T16:19:03.711Z,56.40
2023-04-23T16:21:30.192Z,56.40
2023-04-23T16:23:56.670Z,56.30
2023-04-23T16:26:23.113Z,56.30
2023-04-23T16:28:52.248Z,56.30
2023-04-23T16:31:27.540Z,56.30
2023-04-23T16:33:54.049Z,56.30
2023-04-23T16:36:20.513Z,56.30
2023-04-23T16:38:49.128Z,56.30
2023-04-23T16:41:15.868Z,56.30
2023-04-23T16:43:42.336Z,56.30
2023-04-23T16:46:09.754Z,56.30
2023-04-23T16:48:39.773Z,56.30
2023-04-23T16:51:06.246Z,56.30
2023-04-23T16:53:32.702Z,56.30
2023-04-23T16:56:00.037Z,56.40
2023-04-23T16:58:26.513Z,56.20
2023-04-23T17:00:52.984Z,56.30
2023-04-23T17:03:19.652Z,56.30
2023-04-23T17:05:51.915Z,56.30
2023-04-23T17:08:18.389Z,56.30
2023-04-23T17:10:44.912Z,56.30
2023-04-23T17:13:11.395Z,56.20
2023-04-23T17:15:37.880Z,56.40
2023-04-23T17:18:04.388Z,56.40
2023-04-23T17:20:30.888Z,56.40
2023-04-23T17:22:57.366Z,56.30
2023-04-23T17:25:23.847Z,56.30
2023-04-23T17:27:50.322Z,56.40
2023-04-23T17:30:16.810Z,56.40
2023-04-23T17:32:43.320Z,56.40
2023-04-23T17:35:10.846Z,56.40
2023-04-23T17:37:37.531Z,56.40
2023-04-23T17:40:04.037Z,56.50
2023-04-23T17:42:30.521Z,56.50
2023-04-23T17:44:57.005Z,56.30
2023-04-23T17:47:23.579Z,56.40
2023-04-23T17:49:50.141Z,56.50
2023-04-23T17:52:16.638Z,56.50
2023-04-23T17:54:43.448Z,56.50
2023-04-23T17:57:10.295Z,56.50
2023-04-23T17:59:36.770Z,56.60
2023-04-23T18:02:03.278Z,56.60
2023-04-23T18:04:29.823Z,56.50
2023-04-23T18:06:56.320Z,56.70
2023-04-23T18:09:22.797Z,56.70
2023-04-23T18:11:49.304Z,56.70
2023-04-23T18:14:15.779Z,56.80
2023-04-23T18:16:42.287Z,56.80
2023-04-23T18:19:09.002Z,56.90
2023-04-23T18:21:35.474Z,56.90
2023-04-23T18:24:01.967Z,56.90
2023-04-23T18:26:29.325Z,56.80
2023-04-23T18:28:55.874Z,56.80
2023-04-23T18:31:28.085Z,56.90
2023-04-23T18:33:54.578Z,56.90
2023-04-23T18:36:21.088Z,57.10
2023-04-23T18:38:47.591Z,57.10
2023-04-23T18:41:14.093Z,57.00
2023-04-23T18:43:40.576Z,57.00
2023-04-23T18:46:07.091Z,57.00
2023-04-23T18:48:33.611Z,57.00
2023-04-23T18:51:00.110Z,57.10
2023-04-23T18:53:26.623Z,57.20
2023-04-23T18:55:53.096Z,57.50
2023-04-23T18:58:19.608Z,57.70
2023-04-23T19:00:46.075Z,57.80
2023-04-23T19:03:25.274Z,57.70
2023-04-23T19:05:57.914Z,57.80
2023-04-23T19:08:27.878Z,57.70
2023-04-23T19:11:03.896Z,57.60
2023-04-23T19:13:30.383Z,57.70
2023-04-23T19:15:56.904Z,57.80
2023-04-23T19:18:23.510Z,57.70
2023-04-23T19:20:49.961Z,57.80
2023-04-23T19:23:16.437Z,57.80
2023-04-23T19:25:42.912Z,57.80
2023-04-23T19:28:09.427Z,58.10
2023-04-23T19:30:35.907Z,58.00
2023-04-23T19:33:02.454Z,58.20
2023-04-23T19:35:28.970Z,58.30
2023-04-23T19:37:55.452Z,58.30
2023-04-23T19:40:21.915Z,58.30
2023-04-23T19:42:51.988Z,58.30
2023-04-23T19:45:18.496Z,58.40
2023-04-23T19:47:45.068Z,58.30
2023-04-23T19:50:11.570Z,58.30
2023-04-23T19:52:38.032Z,58.10
2023-04-23T19:55:04.532Z,58.20
2023-04-23T19:57:31.001Z,58.20
2023-04-23T19:59:57.486Z,58.20
2023-04-23T20:02:23.952Z,58.10
2023-04-23T20:04:51.938Z,58.30
2023-04-23T20:07:18.416Z,58.30
2023-04-23T20:09:45.156Z,58.30
2023-04-23T20:12:11.930Z,58.20
2023-04-23T20:14:38.483Z,58.20
2023-04-23T20:17:05.029Z,58.30
2023-04-23T20:19:31.560Z,58.20
2023-04-23T20:21:58.033Z,58.20
2023-04-23T20:24:24.558Z,58.20
2023-04-23T20:26:51.044Z,58.20
2023-04-23T20:29:17.529Z,58.20
2023-04-23T20:31:44.027Z,58.20
2023-04-23T20:34:10.525Z,58.10
2023-04-23T20:36:36.994Z,58.10
2023-04-23T20:39:03.466Z,58.20
2023-04-23T20:41:34.002Z,58.20
2023-04-23T20:44:00.479Z,58.20
2023-04-23T20:46:26.957Z,58.20
2023-04-23T20:48:53.445Z,58.20
2023-04-23T20:51:19.919Z,58.20
2023-04-23T20:53:46.418Z,58.20
2023-04-23T20:56:12.905Z,58.20
2023-04-23T20:58:39.373Z,58.20
2023-04-23T21:01:05.868Z,58.20
2023-04-23T21:03:32.454Z,58.20
2023-04-23T21:05:59.054Z,58.10
2023-04-23T21:08:25.528Z,58.10
2023-04-23T21:10:51.995Z,58.00
2023-04-23T21:13:18.484Z,58.10
2023-04-23T21:15:44.957Z,58.10
2023-04-23T21:18:11.523Z,58.00
2023-04-23T21:20:38.031Z,58.00
2023-04-23T21:23:04.532Z,58.00
2023-04-23T21:25:31.014Z,58.00
2023-04-23T21:27:57.484Z,58.00
2023-04-23T21:30:23.953Z,57.90
2023-04-23T21:32:50.449Z,57.90
2023-04-23T21:35:17.021Z,57.90
2023-04-23T21:37:43.481Z,57.90
2023-04-23T21:40:09.947Z,57.90
2023-04-23T21:42:36.433Z,57.90
2023-04-23T21:45:02.922Z,57.70
2023-04-23T21:47:40.103Z,57.90
2023-04-23T21:50:06.651Z,57.80
2023-04-23T21:52:33.131Z,57.80
2023-04-23T21:54:59.643Z,57.70
2023-04-23T21:57:26.149Z,57.80
2023-04-23T21:59:52.658Z,57.70
2023-04-23T22:02:19.212Z,57.70
2023-04-23T22:04:45.942Z,57.60
2023-04-23T22:07:12.498Z,57.50
2023-04-23T22:09:39.021Z,57.50
2023-04-23T22:12:05.476Z,57.30
2023-04-23T22:14:31.945Z,57.40
2023-04-23T22:16:58.498Z,57.30
2023-04-23T22:19:25.069Z,57.30
2023-04-23T22:21:51.566Z,57.20
2023-04-23T22:24:18.029Z,57.10
2023-04-23T22:26:44.499Z,57.20
2023-04-23T22:29:10.977Z,57.10
2023-04-23T22:31:37.469Z,56.70
2023-04-23T22:34:03.981Z,56.80
2023-04-23T22:36:30.453Z,56.90
2023-04-23T22:38:56.931Z,56.90
2023-04-23T22:41:23.402Z,56.80
2023-04-23T22:43:49.875Z,56.80
2023-04-23T22:46:16.417Z,56.60
2023-04-23T22:48:42.976Z,56.60
2023-04-23T22:51:09.450Z,56.50
2023-04-23T22:53:35.920Z,56.40
2023-04-23T22:56:02.399Z,56.40
2023-04-23T22:58:28.881Z,56.30
2023-04-23T23:00:55.423Z,56.10
2023-04-23T23:03:23.176Z,56.10
2023-04-23T23:05:52.059Z,56.10
2023-04-23T23:08:18.517Z,56.20
2023-04-23T23:10:44.993Z,56.10
2023-04-23T23:13:11.471Z,56.00
2023-04-23T23:15:37.958Z,56.00
2023-04-23T23:18:04.463Z,56.00
2023-04-23T23:20:30.960Z,55.90
2023-04-23T23:22:57.449Z,55.70
2023-04-23T23:25:23.921Z,55.90
2023-04-23T23:27:50.399Z,55.60
2023-04-23T23:30:16.874Z,55.70
2023-04-23T23:32:43.392Z,55.70
2023-04-23T23:35:09.933Z,55.60
2023-04-23T23:37:36.416Z,55.50
2023-04-23T23:40:02.900Z,55.60
2023-04-23T23:42:29.373Z,55.60
2023-04-23T23:44:55.831Z,55.50
2023-04-23T23:47:22.415Z,55.40
2023-04-23T23:49:48.964Z,55.40
2023-04-23T23:52:15.420Z,55.40
2023-04-23T23:54:41.951Z,55.30
2023-04-23T23:57:08.470Z,55.30
2023-04-23T23:59:34.942Z,55.20
